createdAt,value
2023-04-10T00:00:03.297Z,7.70
2023-04-10T00:02:30.467Z,7.70
2023-04-10T00:04:57.836Z,7.70
2023-04-10T00:07:24.883Z,7.60
2023-04-10T00:09:52.026Z,7.70
2023-04-10T00:12:18.987Z,7.80
2023-04-10T00:14:46.191Z,7.90
2023-04-10T00:17:13.176Z,7.90
2023-04-10T00:19:40.594Z,7.70
2023-04-10T00:22:07.664Z,7.80
2023-04-10T00:24:34.662Z,7.60
2023-04-10T00:27:01.666Z,7.80
2023-04-10T00:29:28.604Z,7.40
2023-04-10T00:31:55.869Z,7.70
2023-04-10T00:34:24.197Z,7.60
2023-04-10T00:36:51.498Z,7.80
2023-04-10T00:39:19.537Z,7.70
2023-04-10T00:41:46.465Z,7.70
2023-04-10T00:44:13.364Z,7.70
2023-04-10T00:46:40.820Z,7.50
2023-04-10T00:49:09.661Z,7.60
2023-04-10T00:51:37.640Z,7.70
2023-04-10T00:54:04.993Z,7.80
2023-04-10T00:56:32.414Z,7.60
2023-04-10T00:58:59.681Z,7.80
2023-04-10T01:01:26.845Z,7.60
2023-04-10T01:03:55.110Z,7.70
2023-04-10T01:07:04.587Z,7.50
2023-04-10T01:09:56.738Z,7.30
2023-04-10T01:12:39.761Z,7.50
2023-04-10T01:15:18.594Z,7.50
2023-04-10T01:18:05.076Z,7.40
2023-04-10T01:20:36.153Z,7.60
2023-04-10T01:23:23.570Z,7.30
2023-04-10T01:26:15.236Z,7.30
2023-04-10T01:28:47.420Z,7.30
2023-04-10T01:31:22.013Z,7.30
2023-04-10T01:33:55.606Z,7.30
2023-04-10T01:36:29.132Z,7.20
2023-04-10T01:38:58.426Z,7.10
2023-04-10T01:41:27.641Z,7.10
2023-04-10T01:43:56.280Z,7.10
2023-04-10T01:46:25.609Z,7.10
2023-04-10T01:48:55.751Z,7.00
2023-04-10T01:51:23.916Z,7.00
2023-04-10T01:53:52.753Z,7.00
2023-04-10T01:56:20.611Z,6.90
2023-04-10T01:58:48.081Z,7.10
2023-04-10T02:01:29.552Z,6.90
2023-04-10T02:03:59.373Z,6.70
2023-04-10T02:06:53.677Z,6.60
2023-04-10T02:09:44.390Z,6.90
2023-04-10T02:12:29.171Z,6.90
2023-04-10T02:15:03.551Z,6.90
2023-04-10T02:17:32.812Z,6.80
2023-04-10T02:20:01.058Z,6.80
2023-04-10T02:22:28.713Z,6.80
2023-04-10T02:24:59.410Z,7.00
2023-04-10T02:27:35.031Z,6.80
2023-04-10T02:30:03.865Z,6.80
2023-04-10T02:32:38.193Z,6.70
2023-04-10T02:35:06.388Z,6.70
2023-04-10T02:37:35.214Z,6.50
2023-04-10T02:40:02.608Z,6.50
2023-04-10T02:42:30.052Z,6.50
2023-04-10T02:44:57.455Z,6.80
2023-04-10T02:47:25.090Z,6.50
2023-04-10T02:49:52.422Z,6.70
2023-04-10T02:52:19.472Z,6.70
2023-04-10T02:54:47.852Z,6.90
2023-04-10T02:57:17.247Z,6.70
2023-04-10T02:59:44.789Z,6.60
2023-04-10T03:02:12.122Z,6.80
2023-04-10T03:04:39.474Z,6.80
2023-04-10T03:07:07.278Z,6.80
2023-04-10T03:09:34.693Z,6.80
2023-04-10T03:12:02.579Z,6.90
2023-04-10T03:14:29.768Z,6.90
2023-04-10T03:16:56.844Z,6.60
2023-04-10T03:19:27.029Z,6.80
2023-04-10T03:21:54.795Z,7.00
2023-04-10T03:24:22.863Z,6.80
2023-04-10T03:26:50.707Z,6.90
2023-04-10T03:29:19.264Z,6.80
2023-04-10T03:31:46.854Z,6.80
2023-04-10T03:34:14.115Z,6.80
2023-04-10T03:36:42.344Z,6.70
2023-04-10T03:39:09.871Z,6.80
2023-04-10T03:41:37.618Z,6.70
2023-04-10T03:44:05.733Z,6.50
2023-04-10T03:46:32.998Z,6.80
2023-04-10T03:49:00.333Z,6.80
2023-04-10T03:51:28.004Z,6.80
2023-04-10T03:53:55.980Z,6.60
2023-04-10T03:56:23.582Z,7.00
2023-04-10T03:58:51.075Z,6.80
2023-04-10T04:01:18.639Z,6.90
2023-04-10T04:03:46.189Z,6.80
2023-04-10T04:06:13.740Z,6.90
2023-04-10T04:08:41.095Z,6.70
2023-04-10T04:11:08.201Z,6.90
2023-04-10T04:13:35.863Z,6.90
2023-04-10T04:16:03.004Z,6.90
2023-04-10T04:18:30.428Z,6.90
2023-04-10T04:20:57.517Z,6.90
2023-04-10T04:23:25.017Z,6.90
2023-04-10T04:25:53.007Z,7.10
2023-04-10T04:28:20.653Z,6.90
2023-04-10T04:30:48.208Z,6.90
2023-04-10T04:33:15.763Z,6.70
2023-04-10T04:35:43.192Z,6.90
2023-04-10T04:38:10.568Z,6.90
2023-04-10T04:40:37.758Z,7.10
2023-04-10T04:43:05.450Z,7.00
2023-04-10T04:45:32.660Z,7.10
2023-04-10T04:47:59.815Z,7.10
2023-04-10T04:50:27.157Z,7.20
2023-04-10T04:52:54.342Z,6.90
2023-04-10T04:55:21.445Z,7.20
2023-04-10T04:57:48.575Z,7.20
2023-04-10T05:00:15.806Z,7.30
2023-04-10T05:02:42.938Z,7.50
2023-04-10T05:05:10.022Z,7.70
2023-04-10T05:07:37.064Z,7.70
2023-04-10T05:10:04.332Z,7.90
2023-04-10T05:12:31.808Z,7.90
2023-04-10T05:14:58.892Z,7.90
2023-04-10T05:17:25.863Z,8.00
2023-04-10T05:19:52.816Z,8.10
2023-04-10T05:22:19.773Z,8.20
2023-04-10T05:24:46.742Z,8.50
2023-04-10T05:27:13.630Z,8.50
2023-04-10T05:29:40.580Z,8.70
2023-04-10T05:32:07.482Z,9.20
2023-04-10T05:34:34.494Z,9.50
2023-04-10T05:37:01.376Z,10.50
2023-04-10T05:39:28.245Z,11.60
2023-04-10T05:41:55.071Z,12.70
2023-04-10T05:44:22.027Z,13.30
2023-04-10T05:46:48.905Z,13.50
2023-04-10T05:49:16.995Z,14.10
2023-04-10T05:51:43.940Z,14.40
2023-04-10T05:54:10.859Z,14.80
2023-04-10T05:56:37.744Z,15.30
2023-04-10T05:59:04.796Z,16.10
2023-04-10T06:01:31.700Z,16.90
2023-04-10T06:03:58.708Z,17.60
2023-04-10T06:06:27.049Z,18.30
2023-04-10T06:08:54.227Z,19.00
2023-04-10T06:11:21.940Z,19.60
2023-04-10T06:13:49.007Z,20.00
2023-04-10T06:16:16.501Z,20.20
2023-04-10T06:18:43.780Z,20.70
2023-04-10T06:21:10.704Z,21.30
2023-04-10T06:23:37.848Z,22.00
2023-04-10T06:26:04.985Z,22.40
2023-04-10T06:28:31.944Z,22.70
2023-04-10T06:30:58.910Z,23.10
2023-04-10T06:33:26.470Z,23.60
2023-04-10T06:35:53.510Z,23.70
2023-04-10T06:38:20.376Z,24.10
2023-04-10T06:40:47.348Z,24.70
2023-04-10T06:43:14.231Z,25.10
2023-04-10T06:45:41.212Z,25.50
2023-04-10T06:48:08.383Z,25.60
2023-04-10T06:50:35.514Z,25.50
2023-04-10T06:53:02.445Z,25.50
2023-04-10T06:55:30.072Z,25.40
2023-04-10T06:57:57.100Z,25.30
2023-04-10T07:00:24.289Z,25.40
2023-04-10T07:02:51.582Z,25.50
2023-04-10T07:05:18.539Z,25.50
2023-04-10T07:07:45.568Z,25.30
2023-04-10T07:10:13.772Z,25.00
2023-04-10T07:12:41.084Z,24.80
2023-04-10T07:15:08.737Z,24.50
2023-04-10T07:17:35.913Z,24.40
2023-04-10T07:20:03.173Z,24.10
2023-04-10T07:22:30.946Z,23.70
2023-04-10T07:24:58.586Z,23.10
2023-04-10T07:27:25.563Z,22.40
2023-04-10T07:29:55.511Z,21.60
2023-04-10T07:32:23.226Z,21.00
2023-04-10T07:34:50.526Z,20.60
2023-04-10T07:37:18.204Z,20.00
2023-04-10T07:39:45.488Z,19.70
2023-04-10T07:42:12.382Z,19.40
2023-04-10T07:44:39.448Z,19.10
2023-04-10T07:47:06.481Z,18.90
2023-04-10T07:49:33.550Z,18.80
2023-04-10T07:52:00.468Z,18.70
2023-04-10T07:54:27.360Z,18.60
2023-04-10T07:56:54.262Z,18.50
2023-04-10T07:59:21.416Z,18.40
2023-04-10T08:01:48.361Z,18.40
2023-04-10T08:04:15.379Z,18.30
2023-04-10T08:06:42.439Z,18.20
2023-04-10T08:09:09.507Z,18.00
2023-04-10T08:11:38.548Z,17.90
2023-04-10T08:14:06.968Z,17.80
2023-04-10T08:16:35.965Z,17.80
2023-04-10T08:19:03.478Z,17.60
2023-04-10T08:21:32.022Z,17.60
2023-04-10T08:24:01.073Z,17.50
2023-04-10T08:26:28.791Z,17.30
2023-04-10T08:28:58.143Z,17.20
2023-04-10T08:31:27.486Z,17.10
2023-04-10T08:33:55.221Z,17.10
2023-04-10T08:36:22.538Z,17.00
2023-04-10T08:38:49.578Z,17.00
2023-04-10T08:41:18.384Z,16.90
2023-04-10T08:43:46.175Z,16.80
2023-04-10T08:46:14.833Z,16.70
2023-04-10T08:48:53.695Z,16.70
2023-04-10T08:51:25.804Z,16.70
2023-04-10T08:54:00.505Z,16.80
2023-04-10T08:56:27.702Z,16.60
2023-04-10T08:58:54.887Z,16.60
2023-04-10T09:01:23.069Z,16.50
2023-04-10T09:03:50.010Z,16.40
2023-04-10T09:06:16.967Z,16.30
2023-04-10T09:08:43.902Z,16.30
2023-04-10T09:11:13.072Z,16.30
2023-04-10T09:13:42.822Z,16.20
2023-04-10T09:16:11.011Z,16.30
2023-04-10T09:18:44.961Z,16.30
2023-04-10T09:21:16.080Z,16.30
2023-04-10T09:23:44.584Z,16.40
2023-04-10T09:26:31.678Z,16.40
2023-04-10T09:29:06.810Z,16.40
2023-04-10T09:31:38.588Z,16.40
2023-04-10T09:34:14.646Z,16.50
2023-04-10T09:37:01.658Z,16.60
2023-04-10T09:39:42.949Z,16.60
2023-04-10T09:42:11.509Z,16.70
2023-04-10T09:44:39.947Z,16.70
2023-04-10T09:47:21.581Z,16.70
2023-04-10T09:50:00.901Z,16.80
2023-04-10T09:52:29.059Z,16.80
2023-04-10T09:55:01.564Z,16.90
2023-04-10T09:57:33.386Z,16.90
2023-04-10T10:00:04.575Z,17.00
2023-04-10T10:02:37.207Z,17.00
2023-04-10T10:05:05.594Z,17.10
2023-04-10T10:07:33.284Z,17.00
2023-04-10T10:10:12.924Z,17.00
2023-04-10T10:12:45.947Z,17.00
2023-04-10T10:15:57.856Z,17.00
2023-04-10T10:18:42.790Z,17.00
2023-04-10T10:21:10.559Z,17.00
2023-04-10T10:23:39.926Z,17.20
2023-04-10T10:26:08.827Z,17.20
2023-04-10T10:28:37.805Z,17.30
2023-04-10T10:31:06.054Z,17.40
2023-04-10T10:33:36.712Z,17.40
2023-04-10T10:36:07.634Z,17.50
2023-04-10T10:38:36.315Z,17.40
2023-04-10T10:41:18.699Z,17.50
2023-04-10T10:44:11.888Z,17.60
2023-04-10T10:46:49.216Z,17.60
2023-04-10T10:49:16.858Z,17.60
2023-04-10T10:51:45.612Z,17.50
2023-04-10T10:54:29.341Z,17.50
2023-04-10T10:56:56.483Z,17.40
2023-04-10T10:59:51.640Z,17.30
2023-04-10T11:02:19.806Z,17.40
2023-04-10T11:04:50.035Z,17.40
2023-04-10T11:07:17.559Z,17.30
2023-04-10T11:09:52.732Z,17.30
2023-04-10T11:12:22.055Z,17.40
2023-04-10T11:15:04.510Z,17.50
2023-04-10T11:17:49.139Z,17.50
2023-04-10T11:20:17.384Z,17.60
2023-04-10T11:23:11.282Z,17.60
2023-04-10T11:25:51.478Z,17.70
2023-04-10T11:28:34.576Z,17.60
2023-04-10T11:31:28.383Z,17.60
2023-04-10T11:34:05.939Z,17.60
2023-04-10T11:36:34.425Z,17.60
2023-04-10T11:39:03.035Z,17.80
2023-04-10T11:41:32.091Z,17.70
2023-04-10T11:44:04.859Z,17.80
2023-04-10T11:46:31.966Z,17.90
2023-04-10T11:49:07.759Z,17.90
2023-04-10T11:51:34.676Z,18.00
2023-04-10T11:54:09.488Z,18.00
2023-04-10T11:56:38.049Z,18.00
2023-04-10T11:59:07.875Z,18.00
2023-04-10T12:01:35.562Z,18.00
2023-04-10T12:04:02.870Z,18.00
2023-04-10T12:06:31.175Z,18.10
2023-04-10T12:08:58.219Z,18.10
2023-04-10T12:11:26.735Z,18.10
2023-04-10T12:13:55.566Z,18.10
2023-04-10T12:16:23.567Z,18.10
2023-04-10T12:18:50.957Z,18.10
2023-04-10T12:21:18.209Z,18.10
2023-04-10T12:23:45.257Z,18.10
2023-04-10T12:26:17.624Z,18.10
2023-04-10T12:28:57.342Z,18.10
2023-04-10T12:31:33.376Z,18.10
2023-04-10T12:34:01.260Z,18.10
2023-04-10T12:36:30.200Z,18.10
2023-04-10T12:38:58.377Z,18.10
2023-04-10T12:41:35.050Z,18.10
2023-04-10T12:44:12.739Z,18.10
2023-04-10T12:46:41.125Z,18.10
2023-04-10T12:49:15.801Z,18.10
2023-04-10T12:51:46.634Z,18.20
2023-04-10T12:54:29.821Z,18.20
2023-04-10T12:56:57.759Z,18.30
2023-04-10T12:59:26.575Z,18.30
2023-04-10T13:01:57.007Z,18.30
2023-04-10T13:04:24.304Z,18.40
2023-04-10T13:06:54.108Z,18.50
2023-04-10T13:09:21.791Z,18.60
2023-04-10T13:11:50.977Z,18.60
2023-04-10T13:14:18.604Z,18.70
2023-04-10T13:16:45.644Z,18.70
2023-04-10T13:19:13.005Z,18.70
2023-04-10T13:21:41.058Z,18.80
2023-04-10T13:24:08.098Z,18.80
2023-04-10T13:26:34.964Z,18.90
2023-04-10T13:29:01.807Z,18.90
2023-04-10T13:31:28.698Z,18.90
2023-04-10T13:33:58.288Z,18.90
2023-04-10T13:36:26.122Z,18.90
2023-04-10T13:38:53.416Z,18.80
2023-04-10T13:41:20.617Z,18.80
2023-04-10T13:43:47.601Z,18.80
2023-04-10T13:46:14.495Z,18.90
2023-04-10T13:48:41.620Z,19.00
2023-04-10T13:51:09.075Z,19.00
2023-04-10T13:53:36.190Z,19.10
2023-04-10T13:56:03.181Z,19.20
2023-04-10T13:58:31.996Z,19.30
2023-04-10T14:00:59.403Z,19.50
2023-04-10T14:03:26.516Z,19.60
2023-04-10T14:05:54.329Z,19.70
2023-04-10T14:08:21.189Z,19.90
2023-04-10T14:10:51.498Z,20.00
2023-04-10T14:13:18.923Z,20.00
2023-04-10T14:15:46.195Z,20.10
2023-04-10T14:18:14.779Z,20.20
2023-04-10T14:20:42.307Z,20.30
2023-04-10T14:23:09.722Z,20.30
2023-04-10T14:25:36.698Z,20.40
2023-04-10T14:28:03.540Z,20.40
2023-04-10T14:30:32.574Z,20.50
2023-04-10T14:32:59.817Z,20.70
2023-04-10T14:35:26.926Z,20.80
2023-04-10T14:37:54.049Z,20.90
2023-04-10T14:40:20.986Z,21.00
2023-04-10T14:42:52.483Z,20.90
2023-04-10T14:45:19.737Z,20.90
2023-04-10T14:47:47.689Z,20.90
2023-04-10T14:50:14.640Z,20.90
2023-04-10T14:52:41.521Z,20.90
2023-04-10T14:55:08.743Z,20.90
2023-04-10T14:57:36.107Z,20.80
2023-04-10T15:00:06.810Z,20.80
2023-04-10T15:02:33.855Z,20.70
2023-04-10T15:05:00.931Z,20.60
2023-04-10T15:07:28.522Z,20.50
2023-04-10T15:09:58.515Z,20.50
2023-04-10T15:12:25.490Z,20.50
2023-04-10T15:14:52.442Z,20.50
2023-04-10T15:17:22.689Z,20.50
2023-04-10T15:19:50.028Z,20.40
2023-04-10T15:22:16.885Z,20.40
2023-04-10T15:24:50.409Z,20.50
2023-04-10T15:27:21.397Z,20.50
2023-04-10T15:29:48.545Z,20.40
2023-04-10T15:32:15.447Z,20.30
2023-04-10T15:34:42.623Z,20.30
2023-04-10T15:37:09.525Z,20.40
2023-04-10T15:39:37.226Z,20.40
2023-04-10T15:42:05.917Z,20.40
2023-04-10T15:44:32.951Z,20.40
2023-04-10T15:47:02.330Z,20.30
2023-04-10T15:49:37.757Z,20.30
2023-04-10T15:52:06.631Z,20.30
2023-04-10T15:54:34.642Z,20.20
2023-04-10T15:57:02.084Z,20.10
2023-04-10T15:59:29.351Z,20.00
2023-04-10T16:01:56.339Z,20.00
2023-04-10T16:04:23.794Z,20.00
2023-04-10T16:06:50.852Z,20.00
2023-04-10T16:11:48.156Z,20.00
2023-04-10T16:14:15.056Z,20.00
2023-04-10T16:16:41.961Z,20.00
2023-04-10T16:19:09.863Z,20.00
2023-04-10T16:21:36.998Z,19.90
2023-04-10T16:24:04.036Z,19.90
2023-04-10T16:26:31.126Z,19.90
2023-04-10T16:28:58.130Z,19.90
2023-04-10T16:31:25.537Z,19.80
2023-04-10T16:33:52.474Z,19.80
2023-04-10T16:36:19.502Z,19.70
2023-04-10T16:38:49.817Z,19.60
2023-04-10T16:41:20.909Z,19.60
2023-04-10T16:43:48.236Z,19.40
2023-04-10T16:46:15.554Z,19.30
2023-04-10T16:48:42.493Z,19.20
2023-04-10T16:51:16.200Z,19.00
2023-04-10T16:53:43.204Z,18.90
2023-04-10T16:56:10.443Z,18.80
2023-04-10T16:58:38.222Z,18.60
2023-04-10T17:01:25.556Z,18.60
2023-04-10T17:03:53.571Z,18.40
2023-04-10T17:06:21.115Z,18.30
2023-04-10T17:08:48.311Z,18.30
2023-04-10T17:11:16.187Z,18.20
2023-04-10T17:13:43.229Z,18.20
2023-04-10T17:16:10.295Z,18.10
2023-04-10T17:18:37.294Z,18.00
2023-04-10T17:21:04.478Z,18.00
2023-04-10T17:23:31.398Z,17.90
2023-04-10T17:25:58.356Z,17.80
2023-04-10T17:28:25.351Z,17.70
2023-04-10T17:30:52.208Z,17.60
2023-04-10T17:33:21.652Z,17.60
2023-04-10T17:35:51.032Z,17.50
2023-04-10T17:38:18.464Z,17.40
2023-04-10T17:40:45.341Z,17.40
2023-04-10T17:43:12.179Z,17.30
2023-04-10T17:45:39.940Z,17.40
2023-04-10T17:48:07.407Z,17.30
2023-04-10T17:50:35.162Z,17.30
2023-04-10T17:53:02.353Z,17.20
2023-04-10T17:55:29.263Z,17.20
2023-04-10T17:57:58.506Z,17.10
2023-04-10T18:00:25.531Z,17.00
2023-04-10T18:02:58.001Z,16.90
2023-04-10T18:05:25.295Z,16.80
2023-04-10T18:07:52.272Z,16.70
2023-04-10T18:10:19.197Z,16.60
2023-04-10T18:12:46.177Z,16.60
2023-04-10T18:15:16.297Z,16.50
2023-04-10T18:17:43.428Z,16.50
2023-04-10T18:20:11.054Z,16.40
2023-04-10T18:22:37.973Z,16.40
2023-04-10T18:25:05.848Z,16.30
2023-04-10T18:27:34.712Z,16.30
2023-04-10T18:30:02.118Z,16.20
2023-04-10T18:32:29.034Z,16.20
2023-04-10T18:34:56.118Z,16.20
2023-04-10T18:37:23.090Z,16.10
2023-04-10T18:39:50.101Z,16.10
2023-04-10T18:42:17.066Z,16.20
2023-04-10T18:44:43.983Z,16.00
2023-04-10T18:47:11.144Z,15.90
2023-04-10T18:49:38.540Z,15.90
2023-04-10T18:52:05.990Z,15.90
2023-04-10T18:54:34.017Z,15.90
2023-04-10T18:57:01.148Z,15.80
2023-04-10T18:59:28.828Z,16.00
2023-04-10T19:01:56.401Z,15.70
2023-04-10T19:04:23.926Z,15.70
2023-04-10T19:06:51.341Z,15.70
2023-04-10T19:09:20.500Z,15.60
2023-04-10T19:11:47.577Z,15.60
2023-04-10T19:14:17.886Z,15.60
2023-04-10T19:16:46.200Z,15.60
2023-04-10T19:19:20.130Z,15.60
2023-04-10T19:21:47.023Z,15.60
2023-04-10T19:24:14.206Z,15.60
2023-04-10T19:26:41.669Z,15.50
2023-04-10T19:29:09.121Z,15.60
2023-04-10T19:31:36.752Z,15.50
2023-04-10T19:34:09.996Z,15.60
2023-04-10T19:36:37.681Z,15.60
2023-04-10T19:39:05.222Z,15.60
2023-04-10T19:41:32.143Z,15.60
2023-04-10T19:43:59.484Z,15.60
2023-04-10T19:46:26.686Z,15.60
2023-04-10T19:48:54.597Z,15.50
2023-04-10T19:51:21.666Z,15.50
2023-04-10T19:53:48.713Z,15.50
2023-04-10T19:56:16.895Z,15.50
2023-04-10T20:01:47.119Z,15.40
2023-04-10T20:04:14.089Z,15.60
2023-04-10T20:06:43.097Z,15.40
2023-04-10T20:09:11.090Z,15.40
2023-04-10T20:11:37.998Z,15.30
2023-04-10T20:14:04.928Z,15.30
2023-04-10T20:16:32.088Z,15.50
2023-04-10T20:18:59.108Z,15.20
2023-04-10T20:21:27.601Z,15.20
2023-04-10T20:23:57.539Z,15.20
2023-04-10T20:26:27.193Z,15.20
2023-04-10T20:28:54.932Z,15.20
2023-04-10T20:31:22.165Z,15.10
2023-04-10T20:33:49.247Z,15.10
2023-04-10T20:36:16.521Z,15.10
2023-04-10T20:38:43.418Z,15.10
2023-04-10T20:41:10.475Z,15.10
2023-04-10T20:43:37.390Z,15.00
2023-04-10T20:46:05.290Z,15.00
2023-04-10T20:48:32.558Z,15.00
2023-04-10T20:50:59.755Z,15.00
2023-04-10T20:53:28.882Z,15.00
2023-04-10T20:55:55.818Z,15.00
2023-04-10T20:58:22.969Z,15.00
2023-04-10T21:00:53.797Z,15.00
2023-04-10T21:03:21.336Z,15.00
2023-04-10T21:05:48.454Z,15.00
2023-04-10T21:08:15.582Z,15.00
2023-04-10T21:10:46.054Z,14.90
2023-04-10T21:13:14.987Z,14.90
2023-04-10T21:15:43.049Z,14.90
2023-04-10T21:18:10.524Z,14.80
2023-04-10T21:20:37.549Z,14.70
2023-04-10T21:23:04.534Z,14.80
2023-04-10T21:25:32.976Z,14.70
2023-04-10T21:28:01.555Z,14.80
2023-04-10T21:30:29.366Z,14.80
2023-04-10T21:32:56.597Z,14.80
2023-04-10T21:35:27.313Z,15.00
2023-04-10T21:37:58.059Z,14.90
2023-04-10T21:40:30.038Z,14.90
2023-04-10T21:42:56.999Z,14.90
2023-04-10T21:45:23.998Z,14.90
2023-04-10T21:47:51.077Z,15.00
2023-04-10T21:50:18.037Z,15.10
2023-04-10T21:52:45.175Z,15.00
2023-04-10T21:55:12.568Z,15.10
2023-04-10T21:57:39.554Z,15.10
2023-04-10T22:00:09.818Z,15.10
2023-04-10T22:02:37.136Z,15.10
2023-04-10T22:05:04.299Z,15.20
2023-04-10T22:07:31.332Z,15.20
2023-04-10T22:09:58.272Z,15.20
2023-04-10T22:12:25.346Z,15.30
2023-04-10T22:14:52.436Z,15.30
2023-04-10T22:17:19.466Z,15.20
2023-04-10T22:19:46.454Z,15.20
2023-04-10T22:22:13.473Z,15.00
2023-04-10T22:24:41.030Z,14.70
2023-04-10T22:27:10.960Z,14.60
2023-04-10T22:29:38.044Z,14.50
2023-04-10T22:32:05.176Z,14.40
2023-04-10T22:34:32.191Z,14.30
2023-04-10T22:36:59.244Z,14.20
2023-04-10T22:39:26.388Z,14.20
2023-04-10T22:41:53.474Z,14.20
2023-04-10T22:44:20.502Z,14.20
2023-04-10T22:46:48.417Z,14.30
2023-04-10T22:49:18.162Z,14.30
2023-04-10T22:51:47.819Z,14.40
2023-04-10T22:54:16.178Z,14.50
2023-04-10T22:56:44.125Z,14.50
2023-04-10T22:59:11.162Z,14.60
2023-04-10T23:01:38.052Z,14.70
2023-04-10T23:04:06.165Z,14.70
2023-04-10T23:06:33.319Z,14.60
2023-04-10T23:09:00.491Z,14.50
2023-04-10T23:11:27.360Z,14.50
2023-04-10T23:13:54.322Z,14.50
2023-04-10T23:16:21.505Z,14.50
2023-04-10T23:18:50.407Z,14.50
2023-04-10T23:21:17.464Z,14.50
2023-04-10T23:23:44.397Z,14.30
2023-04-10T23:26:11.666Z,14.30
2023-04-10T23:28:38.964Z,13.90
2023-04-10T23:31:06.389Z,13.80
2023-04-10T23:33:33.624Z,13.70
2023-04-10T23:36:00.626Z,13.60
2023-04-10T23:38:27.580Z,13.50
2023-04-10T23:40:54.959Z,13.50
2023-04-10T23:43:22.228Z,13.30
2023-04-10T23:45:52.206Z,13.20
2023-04-10T23:48:19.273Z,13.10
2023-04-10T23:50:46.382Z,12.90
2023-04-10T23:53:14.688Z,12.80
2023-04-10T23:55:42.531Z,12.70
2023-04-10T23:58:09.992Z,12.60
